Time;durP1;ratioP1;P1;durP2;ratioP2;P2;SDS_P1;SDS_P2;PMS_P1;PMS_P2;Temp;Humidity;BMP_temperature;BMP_pressure;BME280_temperature;BME280_humidity;BME280_pressure;Samples;Min_cycle;Max_cycle;Signal;HPM_P1;HPM_P2
2022/10/17 00:02:13;;;;;;;3.30;2.27;;;;;;;9.68;94.77;100308.47;1774458;80;20902;-61
2022/10/17 00:04:40;;;;;;;3.90;2.40;;;;;;;9.64;94.56;100311.19;1773528;79;20985;-61
2022/10/17 00:07:06;;;;;;;4.47;2.15;;;;;;;9.58;94.52;100310.10;1777112;78;20903;-61
2022/10/17 00:09:33;;;;;;;3.20;2.17;;;;;;;9.51;94.58;100315.11;1770344;80;21025;-61
2022/10/17 00:12:01;;;;;;;2.67;2.30;;;;;;;9.47;94.51;100308.30;1767468;80;21026;-61
2022/10/17 00:14:28;;;;;;;4.00;2.02;;;;;;;9.36;95.02;100315.63;1771382;80;20950;-61
2022/10/17 00:16:54;;;;;;;4.37;2.30;;;;;;;9.31;95.30;100309.70;1767881;80;20899;-61
2022/10/17 00:19:21;;;;;;;10.47;2.30;;;;;;;9.29;95.48;100316.72;1768117;80;20979;-61
2022/10/17 00:21:49;;;;;;;3.77;2.50;;;;;;;9.24;95.67;100322.52;1769567;79;20948;-61
2022/10/17 00:24:15;;;;;;;2.75;1.92;;;;;;;9.25;95.78;100309.91;1773912;80;21982;-61
2022/10/17 00:26:42;;;;;;;4.28;2.52;;;;;;;9.22;95.75;100307.41;1770129;79;20923;-61
2022/10/17 00:29:08;;;;;;;4.17;2.83;;;;;;;9.14;95.36;100308.49;1770160;78;20919;-61
2022/10/17 00:31:35;;;;;;;3.97;2.87;;;;;;;9.02;94.99;100315.83;1779835;80;20942;-61
2022/10/17 00:34:02;;;;;;;2.77;2.55;;;;;;;8.88;94.94;100318.89;1772472;79;21030;-61
2022/10/17 00:36:29;;;;;;;2.80;2.20;;;;;;;8.80;94.86;100323.03;1776051;80;21028;-61
2022/10/17 00:38:58;;;;;;;5.70;2.37;;;;;;;8.70;95.00;100323.73;1774286;80;22132;-60
2022/10/17 00:41:29;;;;;;;2.87;2.40;;;;;;;8.62;95.10;100327.02;1770144;78;20925;-60
2022/10/17 00:44:06;;;;;;;2.55;2.10;;;;;;;8.54;95.23;100322.48;1776973;79;20986;-60
2022/10/17 00:46:36;;;;;;;2.85;2.20;;;;;;;8.47;95.31;100322.27;1785246;80;26564;-60
2022/10/17 00:49:07;;;;;;;5.65;2.90;;;;;;;8.38;95.18;100326.41;1784328;80;21077;-61
2022/10/17 00:51:48;;;;;;;3.10;2.27;;;;;;;8.35;94.95;100331.71;1782844;80;20867;-61
2022/10/17 00:54:18;;;;;;;4.97;2.87;;;;;;;8.20;95.03;100337.72;1782957;78;20903;-61
2022/10/17 00:56:47;;;;;;;2.62;1.67;;;;;;;8.10;95.12;100342.79;1780132;80;20978;-61
2022/10/17 00:59:16;;;;;;;15.55;2.62;;;;;;;8.04;95.16;100337.76;1759630;79;20993;-61
2022/10/17 01:01:47;;;;;;;6.25;2.10;;;;;;;8.02;94.89;100336.94;1755212;81;21040;-60
2022/10/17 01:04:15;;;;;;;7.12;3.95;;;;;;;7.88;94.94;100325.60;1786939;79;20905;-64
2022/10/17 01:06:41;;;;;;;3.77;2.70;;;;;;;7.82;95.32;100337.02;1785356;80;20939;-61
2022/10/17 01:09:08;;;;;;;6.50;4.43;;;;;;;7.87;95.94;100336.03;1786485;78;21453;-61
2022/10/17 01:11:40;;;;;;;14.40;7.45;;;;;;;7.88;95.87;100341.66;1787317;80;21484;-61
2022/10/17 01:14:12;;;;;;;13.78;8.78;;;;;;;7.89;96.11;100342.05;1788398;80;21032;-60
2022/10/17 01:16:47;;;;;;;48.58;23.22;;;;;;;7.95;96.42;100347.08;1782366;80;20930;-61
2022/10/17 01:19:28;;;;;;;14.85;7.35;;;;;;;7.94;96.15;100350.59;1769797;80;20922;-60
2022/10/17 01:22:12;;;;;;;18.80;10.20;;;;;;;7.90;95.96;100358.05;1782741;78;22060;-60
2022/10/17 01:25:13;;;;;;;8.43;4.30;;;;;;;7.84;95.75;100365.14;1749410;80;20954;-60
2022/10/17 01:28:05;;;;;;;4.60;3.10;;;;;;;7.76;95.37;100369.67;1784468;80;21060;-60
2022/10/17 01:31:12;;;;;;;5.20;2.83;;;;;;;7.62;94.93;100367.88;1757788;81;21402;-61
2022/10/17 01:34:17;;;;;;;6.28;2.40;;;;;;;7.47;94.92;100363.03;1756506;81;24792;-60
2022/10/17 01:36:57;;;;;;;5.67;2.98;;;;;;;7.37;95.18;100359.82;1784932;79;21524;-60
2022/10/17 01:39:47;;;;;;;4.05;2.70;;;;;;;7.34;95.47;100369.84;1785965;78;21481;-60
2022/10/17 01:42:31;;;;;;;5.50;3.30;;;;;;;7.35;95.80;100375.87;1785257;78;21486;-60
2022/10/17 01:45:32;;;;;;;4.92;3.90;;;;;;;7.45;96.34;100379.09;1786045;80;21517;-61
2022/10/17 01:48:05;;;;;;;4.80;3.45;;;;;;;7.55;96.47;100388.39;1780682;80;20844;-60
2022/10/17 01:50:37;;;;;;;7.00;4.60;;;;;;;7.62;96.64;100396.02;1785327;80;20891;-61
2022/10/17 01:53:12;;;;;;;6.37;4.22;;;;;;;7.65;96.49;100397.69;1785860;80;20966;-60
2022/10/17 01:55:43;;;;;;;10.00;4.60;;;;;;;7.68;96.46;100392.86;1785956;80;21927;-60
2022/10/17 01:58:26;;;;;;;4.65;3.30;;;;;;;7.66;96.19;100394.19;1771684;79;21345;-61
2022/10/17 02:00:55;;;;;;;5.05;2.90;;;;;;;7.61;95.93;100396.03;1777758;80;20911;-60
2022/10/17 02:03:25;;;;;;;10.68;4.62;;;;;;;7.55;95.75;100394.89;1759241;81;21015;-60
2022/10/17 02:05:52;;;;;;;6.28;2.92;;;;;;;7.44;95.58;100400.79;1728545;81;20970;-60
2022/10/17 02:08:28;;;;;;;4.92;3.33;;;;;;;7.36;95.69;100391.41;1755897;81;22020;-61
2022/10/17 02:11:00;;;;;;;9.00;3.17;;;;;;;7.23;95.31;100387.41;1749088;80;20900;-61
2022/10/17 02:13:59;;;;;;;4.85;3.55;;;;;;;7.09;95.18;100382.98;1749299;79;20949;-60
2022/10/17 02:17:05;;;;;;;9.60;3.65;;;;;;;7.04;95.86;100392.61;1752985;80;21449;-60
2022/10/17 02:20:09;;;;;;;5.47;2.90;;;;;;;7.05;96.14;100398.20;1664324;84;20959;-60
2022/10/17 02:22:41;;;;;;;4.03;3.33;;;;;;;6.93;96.12;100384.60;1680998;83;21006;-60
2022/10/17 02:25:24;;;;;;;5.05;3.65;;;;;;;7.03;96.48;100407.76;1687260;84;20942;-60
2022/10/17 02:28:18;;;;;;;7.92;4.40;;;;;;;7.10;96.93;100411.95;1691222;83;20942;-60
2022/10/17 02:31:10;;;;;;;3.22;2.92;;;;;;;7.18;97.25;100417.83;1678708;83;20933;-60
2022/10/17 02:34:00;;;;;;;6.08;4.03;;;;;;;7.27;97.42;100424.11;1684687;83;20973;-60
2022/10/17 02:36:38;;;;;;;5.65;4.25;;;;;;;7.33;97.33;100427.01;1674135;84;22036;-61
2022/10/17 02:39:07;;;;;;;12.63;9.63;;;;;;;7.33;97.06;100430.45;1665857;84;20925;-60
2022/10/17 02:41:35;;;;;;;11.83;8.93;;;;;;;7.26;96.73;100431.50;1662955;84;20937;-60
2022/10/17 02:44:04;;;;;;;5.12;3.67;;;;;;;7.12;96.13;100441.34;1667078;84;21127;-60
2022/10/17 02:46:33;;;;;;;5.55;3.77;;;;;;;7.06;96.33;100446.67;1679055;83;20936;-60
2022/10/17 02:49:16;;;;;;;5.30;3.65;;;;;;;7.05;96.65;100431.96;1673896;83;20960;-60
2022/10/17 02:51:48;;;;;;;6.87;3.92;;;;;;;7.09;96.99;100437.06;1687213;83;20937;-60
2022/10/17 02:54:23;;;;;;;4.70;2.90;;;;;;;7.15;97.07;100437.37;1729679;80;20908;-60
2022/10/17 02:57:10;;;;;;;4.03;2.95;;;;;;;7.08;96.18;100442.28;1759808;81;20997;-60
2022/10/17 02:59:40;;;;;;;3.67;2.85;;;;;;;6.91;95.78;100451.27;1763469;81;20942;-60
2022/10/17 03:02:07;;;;;;;8.03;4.12;;;;;;;6.81;95.48;100447.17;1760123;79;21191;-60
2022/10/17 03:04:33;;;;;;;7.07;3.73;;;;;;;6.67;95.17;100437.52;1759009;81;20957;-60
2022/10/17 03:07:00;;;;;;;7.65;3.10;;;;;;;6.56;95.28;100448.55;1766732;81;20922;-61
2022/10/17 03:09:27;;;;;;;4.05;3.30;;;;;;;6.60;96.00;100451.48;1761981;81;20898;-60
2022/10/17 03:11:53;;;;;;;3.90;2.77;;;;;;;6.66;96.36;100455.25;1755771;81;21451;-61
2022/10/17 03:14:20;;;;;;;3.83;3.33;;;;;;;6.71;96.55;100453.42;1750390;81;21102;-61
2022/10/17 03:16:47;;;;;;;4.12;3.15;;;;;;;6.72;96.41;100452.52;1758705;81;20922;-60
2022/10/17 03:19:13;;;;;;;3.98;2.83;;;;;;;6.74;96.40;100455.95;1757119;81;20926;-60
2022/10/17 03:21:40;;;;;;;4.80;3.08;;;;;;;6.75;96.40;100464.17;1759212;80;21009;-61
2022/10/17 03:24:08;;;;;;;3.85;3.00;;;;;;;6.76;96.31;100464.58;1754310;81;20961;-60
2022/10/17 03:26:34;;;;;;;4.33;3.20;;;;;;;6.72;96.93;100460.31;1761518;80;21953;-60
2022/10/17 03:29:01;;;;;;;5.20;4.00;;;;;;;6.85;97.49;100468.72;1761367;80;21452;-60
2022/10/17 03:31:28;;;;;;;6.65;4.25;;;;;;;6.89;97.45;100467.34;1759934;80;20954;-60
2022/10/17 03:33:54;;;;;;;5.72;3.70;;;;;;;7.00;97.84;100472.73;1760712;79;21527;-60
2022/10/17 03:36:21;;;;;;;8.45;3.70;;;;;;;7.09;97.80;100464.78;1760163;81;20973;-60
2022/10/17 03:38:48;;;;;;;8.93;3.70;;;;;;;7.04;97.17;100475.70;1757629;81;21068;-60
2022/10/17 03:41:14;;;;;;;8.80;3.75;;;;;;;7.01;96.93;100470.13;1759467;79;20934;-60
2022/10/17 03:43:41;;;;;;;10.97;3.87;;;;;;;6.94;96.60;100466.78;1763663;79;20902;-60
2022/10/17 03:46:08;;;;;;;7.60;3.33;;;;;;;6.87;96.36;100457.42;1766455;80;21755;-61
2022/10/17 03:48:35;;;;;;;9.48;3.30;;;;;;;6.80;96.25;100464.91;1764955;80;21488;-60
2022/10/17 03:51:07;;;;;;;10.70;3.62;;;;;;;6.68;96.17;100469.05;1767294;80;21080;-60
2022/10/17 03:53:34;;;;;;;4.53;3.12;;;;;;;6.67;96.49;100466.91;1768412;80;20962;-60
2022/10/17 03:56:16;;;;;;;5.00;2.83;;;;;;;6.70;96.67;100475.08;1768117;80;20910;-61
2022/10/17 03:58:43;;;;;;;6.58;2.92;;;;;;;6.74;96.89;100480.61;1769822;80;20986;-60
2022/10/17 04:01:14;;;;;;;5.55;3.05;;;;;;;6.76;96.90;100489.23;1770115;80;20945;-61
2022/10/17 04:03:41;;;;;;;6.03;3.47;;;;;;;6.79;97.08;100485.27;1765329;80;21144;-60
2022/10/17 04:06:12;;;;;;;4.50;2.92;;;;;;;6.79;96.92;100482.68;1771199;80;20914;-60
2022/10/17 04:08:39;;;;;;;6.10;3.20;;;;;;;6.72;96.53;100489.73;1764438;80;20914;-61
2022/10/17 04:11:07;;;;;;;9.17;2.90;;;;;;;6.69;96.61;100496.70;1767617;79;21460;-60
2022/10/17 04:13:34;;;;;;;7.83;3.00;;;;;;;6.67;96.84;100498.50;1768018;80;21176;-60
2022/10/17 04:16:05;;;;;;;4.60;2.70;;;;;;;6.65;97.10;100489.88;1769207;80;21818;-60
2022/10/17 04:18:33;;;;;;;4.33;3.08;;;;;;;6.63;97.16;100485.16;1766918;80;21536;-60
2022/10/17 04:21:04;;;;;;;4.20;3.22;;;;;;;6.63;97.24;100496.83;1767536;80;21424;-60
2022/10/17 04:23:31;;;;;;;4.92;3.40;;;;;;;6.62;97.21;100505.51;1767352;81;20929;-60
2022/10/17 04:25:59;;;;;;;5.55;3.00;;;;;;;6.64;97.25;100503.75;1764566;80;20930;-60
2022/10/17 04:28:27;;;;;;;4.90;3.30;;;;;;;6.61;97.12;100495.99;1768682;80;21019;-60
2022/10/17 04:31:05;;;;;;;5.60;3.20;;;;;;;6.57;97.02;100499.54;1766403;80;20878;-60
2022/10/17 04:33:33;;;;;;;9.30;3.62;;;;;;;6.56;97.15;100491.36;1762936;80;21453;-60
2022/10/17 04:36:04;;;;;;;;;;;;;;;6.58;97.31;100497.34;1773113;80;21427;-59
2022/10/17 04:38:30;;;;;;;5.28;3.47;;;;;;;6.61;97.63;100498.59;1770003;80;20117;-60
2022/10/17 04:41:02;;;;;;;8.85;4.50;;;;;;;6.65;97.68;100508.05;1765957;80;21046;-60
2022/10/17 04:43:34;;;;;;;8.30;4.10;;;;;;;6.73;97.96;100495.78;1766316;79;20926;-60
2022/10/17 04:46:04;;;;;;;7.33;4.92;;;;;;;6.80;97.97;100492.16;1754320;81;20930;-59
2022/10/17 04:48:32;;;;;;;9.15;4.90;;;;;;;6.84;98.00;100505.96;1755260;81;21445;-59
2022/10/17 04:51:03;;;;;;;12.45;5.60;;;;;;;6.92;98.20;100517.91;1757143;80;20987;-59
2022/10/17 04:53:35;;;;;;;11.63;6.47;;;;;;;6.99;98.33;100516.48;1754038;81;21060;-60
2022/10/17 04:56:10;;;;;;;11.83;6.85;;;;;;;7.02;98.13;100508.63;1755745;81;20902;-60
2022/10/17 04:58:38;;;;;;;10.65;7.83;;;;;;;7.06;98.32;100498.61;1758959;81;21491;-59
2022/10/17 05:01:08;;;;;;;11.48;5.50;;;;;;;7.14;98.62;100501.87;1761658;80;20938;-60
2022/10/17 05:03:35;;;;;;;7.00;4.33;;;;;;;7.21;98.60;100499.57;1776933;79;20905;-60
2022/10/17 05:06:08;;;;;;;10.70;6.00;;;;;;;7.23;98.18;100501.70;1794464;79;20991;-60
2022/10/17 05:08:35;;;;;;;10.38;5.08;;;;;;;7.19;97.70;100514.33;1797356;78;20882;-60
2022/10/17 05:11:03;;;;;;;10.60;5.75;;;;;;;7.17;97.87;100509.62;1795942;79;20942;-60
2022/10/17 05:13:30;;;;;;;11.12;5.85;;;;;;;7.17;97.81;100513.52;1790138;79;20912;-60
2022/10/17 05:16:00;;;;;;;;;;;;;;;7.22;98.09;100514.26;1794602;79;20894;-61
2022/10/17 05:18:28;;;;;;;10.00;6.83;;;;;;;7.28;98.36;100512.86;1798395;78;21020;-61
2022/10/17 05:20:55;;;;;;;11.05;6.58;;;;;;;7.36;98.54;100516.12;1759734;80;20867;-61
2022/10/17 05:23:22;;;;;;;15.90;6.42;;;;;;;7.44;98.67;100513.81;1758183;80;20926;-60
2022/10/17 05:25:54;;;;;;;17.30;8.35;;;;;;;7.52;98.87;100515.80;1760270;81;20966;-61
2022/10/17 05:28:21;;;;;;;12.10;7.25;;;;;;;7.62;99.06;100523.37;1760306;80;21528;-60
2022/10/17 05:30:48;;;;;;;12.33;6.65;;;;;;;7.67;98.83;100523.24;1760146;80;21062;-60
2022/10/17 05:33:15;;;;;;;11.15;6.85;;;;;;;7.74;98.90;100526.58;1758536;80;21010;-61
2022/10/17 05:35:42;;;;;;;13.25;7.25;;;;;;;7.82;99.11;100530.70;1757184;81;20922;-61
2022/10/17 05:38:08;;;;;;;14.53;7.10;;;;;;;7.90;99.00;100536.16;1759852;81;20926;-61
2022/10/17 05:40:37;;;;;;;15.68;6.97;;;;;;;7.94;98.99;100528.71;1755702;81;21123;-61
2022/10/17 05:43:03;;;;;;;6.67;4.65;;;;;;;8.01;99.12;100530.27;1755699;80;21214;-61
2022/10/17 05:45:30;;;;;;;11.40;5.40;;;;;;;8.08;99.32;100524.03;1757652;81;20930;-62
2022/10/17 05:47:57;;;;;;;7.15;5.00;;;;;;;8.15;99.27;100520.83;1757754;80;20899;-61
2022/10/17 05:50:24;;;;;;;9.80;6.05;;;;;;;8.18;99.23;100519.03;1754796;81;20930;-61
2022/10/17 05:52:54;;;;;;;14.83;7.97;;;;;;;8.23;99.22;100521.08;1756960;80;21618;-61
2022/10/17 05:55:21;;;;;;;12.70;6.55;;;;;;;8.28;98.89;100510.08;1758038;81;21041;-61
2022/10/17 05:57:51;;;;;;;6.30;4.17;;;;;;;8.26;98.65;100510.59;1759023;80;20946;-61
2022/10/17 06:00:18;;;;;;;6.78;4.33;;;;;;;8.39;99.41;100512.90;1752143;81;21474;-60
2022/10/17 06:02:47;;;;;;;7.22;4.00;;;;;;;8.52;99.72;100520.80;1749573;81;20957;-62
2022/10/17 06:05:14;;;;;;;7.53;4.78;;;;;;;8.62;99.75;100510.54;1745585;81;21965;-60
2022/10/17 06:07:41;;;;;;;;;;;;;;;8.73;99.75;100513.70;1747870;81;21090;-62
2022/10/17 06:10:11;;;;;;;7.95;4.75;;;;;;;8.77;99.47;100516.26;1747728;81;37448;-61
2022/10/17 06:12:40;;;;;;;9.10;5.15;;;;;;;8.85;99.46;100516.88;1754140;81;20953;-61
2022/10/17 06:15:08;;;;;;;10.72;7.00;;;;;;;8.94;99.13;100524.45;1751433;80;21446;-61
2022/10/17 06:17:35;;;;;;;;;;;;;;;8.98;98.82;100531.27;1756248;80;21505;-61
2022/10/17 06:20:03;;;;;;;6.62;4.50;;;;;;;9.07;98.69;100545.79;1758535;80;21018;-61
2022/10/17 06:22:30;;;;;;;;;;;;;;;9.15;98.93;100544.67;1755636;80;20936;-61
2022/10/17 06:24:56;;;;;;;4.58;3.58;;;;;;;9.25;99.54;100548.34;1754425;81;20090;-60
2022/10/17 06:27:23;;;;;;;7.27;4.33;;;;;;;9.40;99.74;100553.09;1751845;81;21023;-60
2022/10/17 06:29:50;;;;;;;10.03;5.83;;;;;;;9.52;99.89;100556.67;1745034;80;21048;-61
2022/10/17 06:32:16;;;;;;;6.67;4.70;;;;;;;9.64;99.69;100561.50;1753100;81;22090;-61
2022/10/17 06:34:43;;;;;;;9.25;6.75;;;;;;;9.73;99.66;100562.13;1748906;80;21497;-61
2022/10/17 06:37:09;;;;;;;8.97;5.07;;;;;;;9.83;99.55;100558.32;1755890;80;21471;-60
2022/10/17 06:39:38;;;;;;;12.23;4.60;;;;;;;9.87;99.03;100558.64;1764012;80;21215;-61
2022/10/17 06:42:04;;;;;;;12.15;4.40;;;;;;;9.87;98.76;100559.95;1735300;81;21561;-60
2022/10/17 06:44:31;;;;;;;15.55;5.80;;;;;;;9.86;98.55;100563.47;1740851;81;21795;-60
2022/10/17 06:46:59;;;;;;;9.65;4.72;;;;;;;9.92;98.42;100564.58;1772918;79;20934;-60
2022/10/17 06:49:27;;;;;;;7.22;3.95;;;;;;;10.05;98.62;100576.34;1742302;80;21021;-61
2022/10/17 06:51:54;;;;;;;8.85;4.00;;;;;;;10.25;99.16;100586.58;1721043;81;20961;-61
2022/10/17 06:54:21;;;;;;;8.85;4.00;;;;;;;10.45;99.17;100587.30;1757632;79;21009;-60
2022/10/17 06:56:47;;;;;;;7.33;4.80;;;;;;;10.51;98.73;100584.02;1754489;79;21120;-61
2022/10/17 06:59:14;;;;;;;9.43;4.40;;;;;;;10.58;98.74;100581.19;1753094;79;20971;-61
2022/10/17 07:01:41;;;;;;;7.62;4.87;;;;;;;10.61;98.79;100584.55;1758016;81;20934;-60
2022/10/17 07:04:08;;;;;;;10.30;4.62;;;;;;;10.70;98.99;100588.63;1761682;81;21491;-61
2022/10/17 07:06:34;;;;;;;9.07;5.07;;;;;;;10.81;98.95;100578.67;1756231;81;21464;-61
2022/10/17 07:09:02;;;;;;;13.37;9.60;;;;;;;10.97;98.68;100582.43;1751340;81;21055;-61
2022/10/17 07:11:28;;;;;;;;;;;;;;;11.07;98.60;100587.36;1759358;81;20941;-61
2022/10/17 07:13:55;;;;;;;7.33;4.70;;;;;;;11.15;98.67;100576.17;1757181;81;20094;-61
2022/10/17 07:16:22;;;;;;;8.70;4.72;;;;;;;11.28;98.78;100566.95;1741872;80;20919;-60
2022/10/17 07:18:50;;;;;;;6.72;4.95;;;;;;;11.50;99.20;100571.40;1759966;81;20875;-60
2022/10/17 07:21:17;;;;;;;13.70;7.47;;;;;;;11.79;99.75;100580.31;1760921;81;21072;-61
2022/10/17 07:23:44;;;;;;;10.95;6.20;;;;;;;12.09;99.73;100582.66;1769115;80;21444;-61
2022/10/17 07:26:14;;;;;;;7.35;4.75;;;;;;;12.25;99.17;100583.75;1772682;80;20912;-61
2022/10/17 07:28:44;;;;;;;8.58;4.78;;;;;;;12.38;98.91;100580.62;1766244;80;20942;-62
2022/10/17 07:31:17;;;;;;;10.78;5.53;;;;;;;12.51;98.90;100587.06;1766046;80;20931;-61
2022/10/17 07:33:44;;;;;;;8.20;5.28;;;;;;;12.61;99.49;100584.47;1772861;80;21187;-62
2022/10/17 07:36:11;;;;;;;;;;;;;;;12.86;99.14;100587.36;1768408;79;20947;-62
2022/10/17 07:38:38;;;;;;;14.13;7.03;;;;;;;13.13;99.65;100586.14;1772750;80;20102;-63
2022/10/17 07:41:07;;;;;;;11.85;6.60;;;;;;;13.43;99.81;100580.48;1769638;80;20872;-61
2022/10/17 07:43:37;;;;;;;11.43;5.62;;;;;;;13.66;99.44;100585.52;1771110;80;20944;-60
2022/10/17 07:46:05;;;;;;;10.65;5.22;;;;;;;13.84;99.14;100578.58;1740055;81;21224;-61
2022/10/17 07:48:32;;;;;;;13.85;4.85;;;;;;;13.93;98.43;100581.70;1740776;81;20882;-61
2022/10/17 07:51:05;;;;;;;13.88;4.80;;;;;;;14.00;98.44;100592.28;1725985;83;21008;-61
2022/10/17 07:53:35;;;;;;;9.73;4.05;;;;;;;14.08;98.51;100593.61;1745247;80;20891;-61
2022/10/17 07:56:07;;;;;;;7.78;3.72;;;;;;;14.19;98.47;100591.78;1728798;81;20975;-61
2022/10/17 07:58:36;;;;;;;10.78;3.50;;;;;;;14.33;98.26;100585.86;1729007;82;21059;-62
2022/10/17 08:01:06;;;;;;;9.05;4.20;;;;;;;14.30;98.41;100586.02;1744633;80;21446;-61
2022/10/17 08:03:33;;;;;;;6.62;3.62;;;;;;;14.39;98.86;100585.55;1758751;80;20946;-60
2022/10/17 08:06:01;;;;;;;7.33;3.33;;;;;;;14.49;98.67;100589.44;1746401;81;20906;-61
2022/10/17 08:08:29;;;;;;;8.58;3.83;;;;;;;14.60;98.65;100583.69;1743022;81;20997;-61
2022/10/17 08:11:04;;;;;;;13.38;5.22;;;;;;;14.71;98.36;100583.14;1748165;81;20965;-61
2022/10/17 08:13:30;;;;;;;11.65;5.67;;;;;;;14.78;98.22;100579.26;1751014;80;20903;-62
2022/10/17 08:16:02;;;;;;;11.48;5.00;;;;;;;14.86;97.18;100578.41;1752388;80;20946;-61
2022/10/17 08:18:29;;;;;;;13.93;5.25;;;;;;;14.86;96.80;100571.83;1798205;78;20942;-61
2022/10/17 08:21:07;;;;;;;12.98;4.40;;;;;;;14.91;97.28;100572.45;1797085;78;26713;-60
2022/10/17 08:23:35;;;;;;;9.95;3.83;;;;;;;14.97;96.65;100573.44;1797718;79;21026;-61
2022/10/17 08:26:05;;;;;;;8.15;3.35;;;;;;;14.99;96.52;100568.96;1796965;79;21929;-62
2022/10/17 08:28:37;;;;;;;9.25;4.00;;;;;;;15.02;96.28;100568.42;1791430;79;20895;-62
2022/10/17 08:31:10;;;;;;;7.03;3.67;;;;;;;14.99;95.81;100567.64;1795881;78;20922;-61
2022/10/17 08:33:38;;;;;;;8.43;4.80;;;;;;;14.86;95.93;100566.58;1752530;81;20986;-61
2022/10/17 08:36:05;;;;;;;;;;;;;;;14.76;96.15;100568.00;1762265;81;21857;-61
2022/10/17 08:38:34;;;;;;;12.05;5.25;;;;;;;14.74;95.83;100568.06;1755607;80;20115;-61
2022/10/17 08:41:04;;;;;;;10.72;4.80;;;;;;;14.80;95.42;100568.68;1751122;81;20978;-61
2022/10/17 08:43:54;;;;;;;9.33;4.58;;;;;;;14.69;95.16;100567.91;1730111;80;20998;-61
2022/10/17 08:46:21;;;;;;;8.63;4.33;;;;;;;14.74;95.78;100564.59;1763804;81;20911;-61
2022/10/17 08:48:50;;;;;;;8.33;4.70;;;;;;;14.80;95.09;100572.16;1768804;80;21109;-61
2022/10/17 08:51:32;;;;;;;15.50;4.75;;;;;;;14.81;94.96;100575.16;1769817;80;20855;-61
2022/10/17 08:54:20;;;;;;;8.23;4.08;;;;;;;14.84;94.82;100570.20;1773085;79;21089;-61
2022/10/17 08:56:49;;;;;;;9.33;5.37;;;;;;;14.89;94.81;100571.67;1762568;80;20949;-61
2022/10/17 08:59:29;;;;;;;8.73;6.03;;;;;;;15.04;94.96;100574.43;1764559;80;20929;-61
2022/10/17 09:02:31;;;;;;;9.93;4.92;;;;;;;15.18;95.03;100564.06;1758258;80;21705;-61
2022/10/17 09:05:33;;;;;;;12.28;4.00;;;;;;;15.33;94.86;100568.50;1764716;80;20965;-61
2022/10/17 09:08:26;;;;;;;11.35;3.77;;;;;;;15.48;94.69;100560.70;1765073;80;20969;-61
2022/10/17 09:10:57;;;;;;;7.42;4.50;;;;;;;15.59;94.25;100561.81;1768850;80;20925;-61
2022/10/17 09:13:44;;;;;;;7.35;3.10;;;;;;;15.63;93.98;100568.63;1766565;79;21471;-62
2022/10/17 09:16:43;;;;;;;5.22;2.50;;;;;;;15.66;93.69;100555.77;1766155;79;22039;-61
2022/10/17 09:19:18;;;;;;;5.00;2.60;;;;;;;15.64;93.52;100548.41;1692905;83;20979;-62
2022/10/17 09:21:55;;;;;;;5.65;2.15;;;;;;;15.65;93.07;100555.36;1689632;83;20933;-61
2022/10/17 09:24:42;;;;;;;7.62;2.55;;;;;;;15.66;93.05;100557.08;1668502;84;21005;-61
2022/10/17 09:27:26;;;;;;;5.00;2.75;;;;;;;15.72;93.32;100555.45;1629607;86;21062;-61
2022/10/17 09:30:04;;;;;;;7.58;3.30;;;;;;;15.83;93.47;100546.48;1630227;86;21048;-61
2022/10/17 09:32:31;;;;;;;6.05;3.17;;;;;;;16.07;93.84;100543.39;1650316;85;20949;-61
2022/10/17 09:34:58;;;;;;;8.33;2.83;;;;;;;16.28;93.16;100547.44;1657844;85;20943;-61
2022/10/17 09:37:29;;;;;;;6.67;2.65;;;;;;;16.37;92.60;100553.11;1658580;85;20991;-61
2022/10/17 09:39:56;;;;;;;7.95;2.58;;;;;;;16.33;92.11;100554.61;1658094;85;20963;-61
2022/10/17 09:42:26;;;;;;;4.85;2.12;;;;;;;16.35;92.16;100555.83;1656651;85;21075;-62
2022/10/17 09:45:29;;;;;;;6.58;2.65;;;;;;;16.40;91.83;100550.30;1653444;85;20910;-61
2022/10/17 09:48:20;;;;;;;6.72;3.10;;;;;;;16.36;91.76;100561.97;1655275;85;21060;-61
2022/10/17 09:50:47;;;;;;;5.75;2.62;;;;;;;16.28;92.17;100560.61;1630325;86;20930;-61
2022/10/17 09:53:19;;;;;;;7.53;2.50;;;;;;;16.21;91.99;100556.62;1655445;85;21045;-61
2022/10/17 09:55:59;;;;;;;5.35;2.33;;;;;;;16.29;91.29;100554.39;1680984;81;21064;-60
2022/10/17 09:58:46;;;;;;;6.80;3.10;;;;;;;16.29;91.09;100547.80;1765822;80;21435;-61
2022/10/17 10:01:33;;;;;;;;;;;;;;;16.24;91.19;100548.53;1767940;80;21570;-60
2022/10/17 10:04:15;;;;;;;8.98;2.87;;;;;;;16.24;91.36;100545.05;1766906;80;20082;-60
2022/10/17 10:07:04;;;;;;;4.45;2.60;;;;;;;16.42;92.48;100542.68;1769079;80;20962;-61
2022/10/17 10:09:33;;;;;;;7.58;3.05;;;;;;;16.73;92.32;100543.03;1777593;79;21037;-60
2022/10/17 10:12:05;;;;;;;6.45;2.70;;;;;;;16.83;91.51;100539.86;1779426;79;20927;-60
2022/10/17 10:14:35;;;;;;;5.35;2.30;;;;;;;16.80;90.83;100538.73;1782365;80;20961;-60
2022/10/17 10:17:07;;;;;;;4.80;2.47;;;;;;;16.79;91.29;100545.80;1766586;80;21492;-61
2022/10/17 10:19:38;;;;;;;5.65;2.55;;;;;;;16.84;90.90;100541.58;1767301;79;20914;-60
2022/10/17 10:22:14;;;;;;;8.90;2.72;;;;;;;16.83;90.70;100539.86;1765496;79;21574;-61
2022/10/17 10:24:45;;;;;;;10.35;2.75;;;;;;;16.82;90.79;100539.02;1766627;80;21542;-61
2022/10/17 10:27:18;;;;;;;7.08;2.27;;;;;;;16.84;90.82;100538.95;1809755;78;21435;-61
2022/10/17 10:29:52;;;;;;;3.70;2.00;;;;;;;16.83;90.51;100537.23;1818010;78;20926;-61
2022/10/17 10:32:29;;;;;;;4.83;2.05;;;;;;;16.83;90.67;100529.31;1813424;78;20927;-61
2022/10/17 10:35:19;;;;;;;7.55;2.60;;;;;;;16.82;90.72;100532.91;1816415;78;21068;-61
2022/10/17 10:37:49;;;;;;;14.47;2.37;;;;;;;16.95;89.94;100526.80;1817096;77;20878;-60
2022/10/17 10:40:27;;;;;;;3.22;1.95;;;;;;;16.94;90.28;100517.64;1793284;78;21283;-61
2022/10/17 10:42:57;;;;;;;6.08;1.80;;;;;;;16.97;90.65;100522.73;1815886;78;20910;-61
2022/10/17 10:45:38;;;;;;;5.12;1.90;;;;;;;17.33;90.99;100529.31;1823320;77;20947;-61
2022/10/17 10:48:23;;;;;;;5.35;2.58;;;;;;;17.63;90.92;100520.78;1817336;78;21095;-61
2022/10/17 10:51:04;;;;;;;6.40;1.90;;;;;;;17.89;90.47;100520.44;1755509;80;21433;-61
2022/10/17 10:53:45;;;;;;;4.83;1.98;;;;;;;18.01;90.10;100512.21;1754029;81;20934;-60
2022/10/17 10:56:23;;;;;;;7.30;2.08;;;;;;;18.10;90.13;100516.88;1757960;81;20863;-62
2022/10/17 10:59:13;;;;;;;6.30;1.42;;;;;;;18.46;90.43;100520.67;1752680;81;21607;-61
2022/10/17 11:01:56;;;;;;;2.05;1.27;;;;;;;18.80;90.30;100513.11;1748889;79;21967;-61
2022/10/17 11:04:37;;;;;;;5.20;1.50;;;;;;;19.14;89.80;100509.44;1757698;81;21089;-60
2022/10/17 11:07:48;;;;;;;7.50;1.70;;;;;;;19.26;88.67;100499.28;1757697;81;21506;-61
2022/10/17 11:10:26;;;;;;;4.00;1.50;;;;;;;19.22;88.16;100501.31;1753278;81;21563;-61
2022/10/17 11:13:04;;;;;;;1.62;1.30;;;;;;;19.21;87.63;100496.11;1751151;81;20989;-61
2022/10/17 11:15:41;;;;;;;2.87;1.47;;;;;;;19.17;87.92;100489.36;1759740;81;21035;-61
2022/10/17 11:18:25;;;;;;;5.12;1.40;;;;;;;19.15;87.48;100488.61;1755204;81;21016;-61
2022/10/17 11:20:59;;;;;;;8.03;1.82;;;;;;;19.03;87.30;100481.55;1748591;81;20907;-61
2022/10/17 11:23:43;;;;;;;2.12;1.50;;;;;;;18.82;86.79;100474.17;1752644;81;20990;-60
2022/10/17 11:26:24;;;;;;;10.90;1.75;;;;;;;18.65;86.82;100465.18;1753762;81;22024;-62
2022/10/17 11:28:47;;;;;;;2.85;1.90;;;;;;;18.49;86.63;100468.89;1752754;81;24711;-62
2022/10/17 11:31:16;;;;;;;6.70;3.65;;;;;;;18.48;86.98;100472.95;1751508;81;20962;-62
2022/10/17 11:34:00;;;;;;;5.65;2.80;;;;;;;18.61;87.21;100467.69;1750400;81;20922;-62
2022/10/17 11:36:31;;;;;;;6.37;2.47;;;;;;;18.62;86.49;100458.78;1754543;81;21037;-63
2022/10/17 11:39:15;;;;;;;8.40;3.10;;;;;;;18.54;86.15;100461.95;1747514;81;20954;-62
2022/10/17 11:41:52;;;;;;;7.10;2.22;;;;;;;18.51;85.72;100456.42;1692450;84;23620;-62
2022/10/17 11:44:38;;;;;;;6.62;2.30;;;;;;;18.48;85.51;100454.44;1692460;83;20989;-62
2022/10/17 11:47:28;;;;;;;14.05;2.90;;;;;;;18.63;85.42;100449.91;1742794;81;20942;-62
2022/10/17 11:50:08;;;;;;;9.50;4.00;;;;;;;18.52;85.31;100442.72;1734601;80;52198;-63
2022/10/17 11:52:40;;;;;;;10.48;5.00;;;;;;;18.48;85.07;100442.06;1736657;80;21033;-62
2022/10/17 11:55:23;;;;;;;7.45;3.92;;;;;;;18.39;84.97;100445.34;1740156;80;21048;-62
2022/10/17 11:58:18;;;;;;;10.72;3.75;;;;;;;18.42;85.16;100437.20;1743082;80;21045;-61